sensor_id;sensor_type;location;lat;lon;timestamp;P1;durP1;ratioP1;P2;durP2;ratioP2
51692;SDS011;37777;53.066;21.638;2023-10-19T00:06:43;46.95;;;41.80;;
51692;SDS011;37777;53.066;21.638;2023-10-19T00:13:46;48.33;;;43.63;;
51692;SDS011;37777;53.066;21.638;2023-10-19T00:20:51;48.38;;;43.13;;
51692;SDS011;37777;53.066;21.638;2023-10-19T00:27:54;48.88;;;43.90;;
51692;SDS011;37777;53.066;21.638;2023-10-19T00:34:55;52.38;;;47.33;;
51692;SDS011;37777;53.066;21.638;2023-10-19T00:41:57;55.20;;;49.60;;
51692;SDS011;37777;53.066;21.638;2023-10-19T00:49:00;53.25;;;47.60;;
51692;SDS011;37777;53.066;21.638;2023-10-19T00:56:03;50.20;;;45.33;;
51692;SDS011;37777;53.066;21.638;2023-10-19T01:03:11;46.08;;;41.45;;
51692;SDS011;37777;53.066;21.638;2023-10-19T01:10:15;46.20;;;41.33;;
51692;SDS011;37777;53.066;21.638;2023-10-19T01:17:22;40.10;;;36.05;;
51692;SDS011;37777;53.066;21.638;2023-10-19T01:24:23;37.10;;;33.40;;
51692;SDS011;37777;53.066;21.638;2023-10-19T01:31:43;38.40;;;34.53;;
51692;SDS011;37777;53.066;21.638;2023-10-19T01:38:58;37.65;;;33.75;;
51692;SDS011;37777;53.066;21.638;2023-10-19T01:46:02;38.80;;;34.90;;
51692;SDS011;37777;53.066;21.638;2023-10-19T01:53:12;40.13;;;36.22;;
51692;SDS011;37777;53.066;21.638;2023-10-19T02:00:16;43.17;;;39.08;;
51692;SDS011;37777;53.066;21.638;2023-10-19T02:07:24;98.35;;;38.97;;
51692;SDS011;37777;53.066;21.638;2023-10-19T02:14:26;40.50;;;36.90;;
51692;SDS011;37777;53.066;21.638;2023-10-19T02:21:30;40.70;;;37.15;;
51692;SDS011;37777;53.066;21.638;2023-10-19T02:28:32;41.63;;;36.15;;
51692;SDS011;37777;53.066;21.638;2023-10-19T02:35:34;59.90;;;43.35;;
51692;SDS011;37777;53.066;21.638;2023-10-19T02:42:36;84.88;;;47.97;;
51692;SDS011;37777;53.066;21.638;2023-10-19T02:49:38;61.83;;;44.28;;
51692;SDS011;37777;53.066;21.638;2023-10-19T02:56:41;101.97;;;41.38;;
51692;SDS011;37777;53.066;21.638;2023-10-19T03:03:44;53.22;;;43.08;;
51692;SDS011;37777;53.066;21.638;2023-10-19T03:10:46;85.57;;;41.70;;
51692;SDS011;37777;53.066;21.638;2023-10-19T03:17:48;68.88;;;37.03;;
51692;SDS011;37777;53.066;21.638;2023-10-19T03:24:50;38.78;;;33.00;;
51692;SDS011;37777;53.066;21.638;2023-10-19T03:32:12;38.15;;;33.88;;
51692;SDS011;37777;53.066;21.638;2023-10-19T03:39:13;36.42;;;33.10;;
51692;SDS011;37777;53.066;21.638;2023-10-19T03:46:15;36.00;;;32.40;;
51692;SDS011;37777;53.066;21.638;2023-10-19T03:53:25;40.08;;;31.80;;
51692;SDS011;37777;53.066;21.638;2023-10-19T04:00:27;54.97;;;36.28;;
51692;SDS011;37777;53.066;21.638;2023-10-19T04:07:30;60.50;;;35.58;;
51692;SDS011;37777;53.066;21.638;2023-10-19T04:14:34;38.53;;;34.83;;
51692;SDS011;37777;53.066;21.638;2023-10-19T04:21:36;40.20;;;36.30;;
51692;SDS011;37777;53.066;21.638;2023-10-19T04:28:40;41.65;;;35.90;;
51692;SDS011;37777;53.066;21.638;2023-10-19T04:35:51;34.40;;;30.77;;
51692;SDS011;37777;53.066;21.638;2023-10-19T04:42:57;34.85;;;31.23;;
51692;SDS011;37777;53.066;21.638;2023-10-19T04:49:59;34.25;;;30.80;;
51692;SDS011;37777;53.066;21.638;2023-10-19T04:57:00;33.10;;;29.77;;
51692;SDS011;37777;53.066;21.638;2023-10-19T05:04:02;32.83;;;29.42;;
51692;SDS011;37777;53.066;21.638;2023-10-19T05:11:04;33.53;;;30.33;;
51692;SDS011;37777;53.066;21.638;2023-10-19T05:18:05;33.70;;;30.08;;
51692;SDS011;37777;53.066;21.638;2023-10-19T05:25:07;33.20;;;29.80;;
51692;SDS011;37777;53.066;21.638;2023-10-19T05:32:09;37.03;;;29.88;;
51692;SDS011;37777;53.066;21.638;2023-10-19T05:39:11;36.53;;;29.73;;
51692;SDS011;37777;53.066;21.638;2023-10-19T05:46:12;33.28;;;29.77;;
51692;SDS011;37777;53.066;21.638;2023-10-19T05:53:15;32.28;;;28.98;;
51692;SDS011;37777;53.066;21.638;2023-10-19T06:00:19;30.10;;;26.98;;
51692;SDS011;37777;53.066;21.638;2023-10-19T06:07:22;29.63;;;26.65;;
51692;SDS011;37777;53.066;21.638;2023-10-19T06:14:26;29.10;;;26.40;;
51692;SDS011;37777;53.066;21.638;2023-10-19T06:21:29;28.98;;;26.30;;
51692;SDS011;37777;53.066;21.638;2023-10-19T06:28:31;27.50;;;24.80;;
51692;SDS011;37777;53.066;21.638;2023-10-19T06:35:35;28.17;;;25.38;;
51692;SDS011;37777;53.066;21.638;2023-10-19T06:42:38;28.88;;;26.10;;
51692;SDS011;37777;53.066;21.638;2023-10-19T06:49:40;27.08;;;24.50;;
51692;SDS011;37777;53.066;21.638;2023-10-19T06:56:42;23.25;;;20.98;;
51692;SDS011;37777;53.066;21.638;2023-10-19T07:03:46;24.00;;;21.70;;
51692;SDS011;37777;53.066;21.638;2023-10-19T07:10:48;29.70;;;26.77;;
51692;SDS011;37777;53.066;21.638;2023-10-19T07:17:52;23.40;;;21.20;;
51692;SDS011;37777;53.066;21.638;2023-10-19T07:24:55;23.00;;;20.75;;
51692;SDS011;37777;53.066;21.638;2023-10-19T07:31:57;26.38;;;23.83;;
51692;SDS011;37777;53.066;21.638;2023-10-19T07:38:59;23.50;;;21.33;;
51692;SDS011;37777;53.066;21.638;2023-10-19T07:46:01;20.33;;;18.52;;
51692;SDS011;37777;53.066;21.638;2023-10-19T07:53:02;21.70;;;19.70;;
51692;SDS011;37777;53.066;21.638;2023-10-19T08:00:04;21.13;;;19.33;;
51692;SDS011;37777;53.066;21.638;2023-10-19T08:07:06;22.08;;;20.08;;
51692;SDS011;37777;53.066;21.638;2023-10-19T08:14:08;24.60;;;22.40;;
51692;SDS011;37777;53.066;21.638;2023-10-19T08:21:10;23.38;;;21.23;;
51692;SDS011;37777;53.066;21.638;2023-10-19T08:28:11;24.80;;;22.50;;
51692;SDS011;37777;53.066;21.638;2023-10-19T08:35:14;22.80;;;20.67;;
51692;SDS011;37777;53.066;21.638;2023-10-19T08:42:17;21.60;;;19.50;;
51692;SDS011;37777;53.066;21.638;2023-10-19T08:49:19;22.63;;;20.52;;
51692;SDS011;37777;53.066;21.638;2023-10-19T08:56:20;22.55;;;20.48;;
51692;SDS011;37777;53.066;21.638;2023-10-19T09:03:25;26.23;;;23.63;;
51692;SDS011;37777;53.066;21.638;2023-10-19T09:10:28;27.48;;;24.98;;
51692;SDS011;37777;53.066;21.638;2023-10-19T09:17:33;27.27;;;24.77;;
51692;SDS011;37777;53.066;21.638;2023-10-19T09:24:35;27.98;;;25.40;;
51692;SDS011;37777;53.066;21.638;2023-10-19T09:31:37;27.52;;;24.73;;
51692;SDS011;37777;53.066;21.638;2023-10-19T09:38:49;25.55;;;23.17;;
51692;SDS011;37777;53.066;21.638;2023-10-19T09:45:54;28.42;;;25.63;;
51692;SDS011;37777;53.066;21.638;2023-10-19T09:53:01;29.35;;;26.45;;
51692;SDS011;37777;53.066;21.638;2023-10-19T10:00:05;27.80;;;25.10;;
51692;SDS011;37777;53.066;21.638;2023-10-19T10:07:13;24.73;;;21.85;;
51692;SDS011;37777;53.066;21.638;2023-10-19T10:14:35;24.52;;;21.92;;
51692;SDS011;37777;53.066;21.638;2023-10-19T10:21:37;28.27;;;24.02;;
51692;SDS011;37777;53.066;21.638;2023-10-19T10:28:45;26.17;;;23.38;;
51692;SDS011;37777;53.066;21.638;2023-10-19T10:35:54;27.47;;;24.50;;
51692;SDS011;37777;53.066;21.638;2023-10-19T10:43:05;25.58;;;23.17;;
51692;SDS011;37777;53.066;21.638;2023-10-19T10:50:07;28.20;;;25.40;;
51692;SDS011;37777;53.066;21.638;2023-10-19T10:57:11;28.00;;;25.02;;
51692;SDS011;37777;53.066;21.638;2023-10-19T11:04:12;29.85;;;26.85;;
51692;SDS011;37777;53.066;21.638;2023-10-19T11:11:16;30.35;;;27.17;;
51692;SDS011;37777;53.066;21.638;2023-10-19T11:18:33;35.83;;;29.48;;
51692;SDS011;37777;53.066;21.638;2023-10-19T11:25:37;33.63;;;29.90;;
51692;SDS011;37777;53.066;21.638;2023-10-19T11:32:39;31.17;;;28.05;;
51692;SDS011;37777;53.066;21.638;2023-10-19T11:39:41;26.50;;;23.90;;
51692;SDS011;37777;53.066;21.638;2023-10-19T11:46:43;25.38;;;22.83;;
51692;SDS011;37777;53.066;21.638;2023-10-19T11:53:44;26.65;;;24.05;;
51692;SDS011;37777;53.066;21.638;2023-10-19T12:00:46;28.10;;;25.17;;
51692;SDS011;37777;53.066;21.638;2023-10-19T12:07:48;28.42;;;25.52;;
51692;SDS011;37777;53.066;21.638;2023-10-19T12:14:51;27.55;;;24.90;;
51692;SDS011;37777;53.066;21.638;2023-10-19T12:21:55;28.60;;;25.85;;
51692;SDS011;37777;53.066;21.638;2023-10-19T12:28:57;28.13;;;25.13;;
51692;SDS011;37777;53.066;21.638;2023-10-19T12:35:59;28.55;;;25.55;;
51692;SDS011;37777;53.066;21.638;2023-10-19T12:43:03;29.70;;;25.73;;
51692;SDS011;37777;53.066;21.638;2023-10-19T12:50:08;27.13;;;24.38;;
51692;SDS011;37777;53.066;21.638;2023-10-19T12:57:10;27.52;;;24.83;;
51692;SDS011;37777;53.066;21.638;2023-10-19T13:04:14;29.20;;;25.13;;
51692;SDS011;37777;53.066;21.638;2023-10-19T13:11:20;28.15;;;25.25;;
51692;SDS011;37777;53.066;21.638;2023-10-19T13:18:21;28.02;;;25.08;;
51692;SDS011;37777;53.066;21.638;2023-10-19T13:25:32;29.70;;;26.50;;
51692;SDS011;37777;53.066;21.638;2023-10-19T13:32:42;28.80;;;25.90;;
51692;SDS011;37777;53.066;21.638;2023-10-19T13:39:44;32.10;;;27.67;;
51692;SDS011;37777;53.066;21.638;2023-10-19T13:46:46;30.25;;;27.02;;
51692;SDS011;37777;53.066;21.638;2023-10-19T13:53:48;30.90;;;26.48;;
51692;SDS011;37777;53.066;21.638;2023-10-19T14:00:54;29.10;;;26.02;;
51692;SDS011;37777;53.066;21.638;2023-10-19T14:07:55;36.67;;;26.60;;
51692;SDS011;37777;53.066;21.638;2023-10-19T14:14:57;29.30;;;25.42;;
51692;SDS011;37777;53.066;21.638;2023-10-19T14:21:58;28.17;;;25.17;;
51692;SDS011;37777;53.066;21.638;2023-10-19T14:28:59;28.67;;;25.52;;
51692;SDS011;37777;53.066;21.638;2023-10-19T14:36:02;26.48;;;22.90;;
51692;SDS011;37777;53.066;21.638;2023-10-19T14:43:05;28.02;;;25.20;;
51692;SDS011;37777;53.066;21.638;2023-10-19T14:50:10;26.50;;;24.17;;
51692;SDS011;37777;53.066;21.638;2023-10-19T14:57:12;25.90;;;23.48;;
51692;SDS011;37777;53.066;21.638;2023-10-19T15:04:14;24.40;;;21.95;;
51692;SDS011;37777;53.066;21.638;2023-10-19T15:11:16;22.48;;;20.15;;
51692;SDS011;37777;53.066;21.638;2023-10-19T15:18:19;21.80;;;19.98;;
51692;SDS011;37777;53.066;21.638;2023-10-19T15:25:20;20.30;;;18.50;;
51692;SDS011;37777;53.066;21.638;2023-10-19T15:32:25;18.45;;;17.00;;
51692;SDS011;37777;53.066;21.638;2023-10-19T15:39:27;19.77;;;18.17;;
51692;SDS011;37777;53.066;21.638;2023-10-19T15:46:29;19.20;;;17.70;;
51692;SDS011;37777;53.066;21.638;2023-10-19T15:53:32;19.85;;;17.95;;
51692;SDS011;37777;53.066;21.638;2023-10-19T16:00:35;19.63;;;18.10;;
51692;SDS011;37777;53.066;21.638;2023-10-19T16:07:39;21.23;;;19.42;;
51692;SDS011;37777;53.066;21.638;2023-10-19T16:14:41;21.13;;;19.42;;
51692;SDS011;37777;53.066;21.638;2023-10-19T16:21:42;21.05;;;19.25;;
51692;SDS011;37777;53.066;21.638;2023-10-19T16:28:44;22.90;;;21.10;;
51692;SDS011;37777;53.066;21.638;2023-10-19T16:35:45;23.98;;;21.77;;
51692;SDS011;37777;53.066;21.638;2023-10-19T16:42:48;25.17;;;23.27;;
51692;SDS011;37777;53.066;21.638;2023-10-19T16:49:49;23.63;;;21.85;;
51692;SDS011;37777;53.066;21.638;2023-10-19T16:56:51;21.75;;;20.00;;
51692;SDS011;37777;53.066;21.638;2023-10-19T17:03:52;21.73;;;20.08;;
51692;SDS011;37777;53.066;21.638;2023-10-19T17:10:55;22.15;;;20.20;;
51692;SDS011;37777;53.066;21.638;2023-10-19T17:17:57;23.77;;;21.88;;
51692;SDS011;37777;53.066;21.638;2023-10-19T17:25:00;24.85;;;22.85;;
51692;SDS011;37777;53.066;21.638;2023-10-19T17:32:01;25.63;;;23.42;;
51692;SDS011;37777;53.066;21.638;2023-10-19T17:39:03;25.05;;;23.17;;
51692;SDS011;37777;53.066;21.638;2023-10-19T17:46:04;24.83;;;22.92;;
51692;SDS011;37777;53.066;21.638;2023-10-19T17:53:07;26.73;;;24.27;;
51692;SDS011;37777;53.066;21.638;2023-10-19T18:00:09;28.10;;;25.90;;
51692;SDS011;37777;53.066;21.638;2023-10-19T18:07:12;27.63;;;25.63;;
51692;SDS011;37777;53.066;21.638;2023-10-19T18:14:14;25.88;;;23.75;;
51692;SDS011;37777;53.066;21.638;2023-10-19T18:21:15;24.92;;;23.13;;
51692;SDS011;37777;53.066;21.638;2023-10-19T18:28:17;25.10;;;23.08;;
51692;SDS011;37777;53.066;21.638;2023-10-19T18:35:18;23.48;;;21.58;;
51692;SDS011;37777;53.066;21.638;2023-10-19T18:42:21;24.33;;;22.33;;
51692;SDS011;37777;53.066;21.638;2023-10-19T18:49:22;25.50;;;23.40;;
51692;SDS011;37777;53.066;21.638;2023-10-19T18:56:24;24.48;;;22.60;;
51692;SDS011;37777;53.066;21.638;2023-10-19T19:03:26;42.88;;;23.33;;
51692;SDS011;37777;53.066;21.638;2023-10-19T19:10:28;22.88;;;20.95;;
51692;SDS011;37777;53.066;21.638;2023-10-19T19:17:34;22.33;;;20.52;;
51692;SDS011;37777;53.066;21.638;2023-10-19T19:24:36;23.75;;;21.70;;
51692;SDS011;37777;53.066;21.638;2023-10-19T19:31:39;23.52;;;21.67;;
51692;SDS011;37777;53.066;21.638;2023-10-19T19:38:41;25.63;;;23.55;;
51692;SDS011;37777;53.066;21.638;2023-10-19T19:45:45;28.25;;;25.92;;
51692;SDS011;37777;53.066;21.638;2023-10-19T19:52:46;27.90;;;25.90;;
51692;SDS011;37777;53.066;21.638;2023-10-19T19:59:48;26.65;;;24.55;;
51692;SDS011;37777;53.066;21.638;2023-10-19T20:06:50;24.38;;;22.55;;
51692;SDS011;37777;53.066;21.638;2023-10-19T20:13:51;25.85;;;23.83;;
51692;SDS011;37777;53.066;21.638;2023-10-19T20:20:53;28.63;;;26.27;;
51692;SDS011;37777;53.066;21.638;2023-10-19T20:27:56;27.50;;;25.27;;
51692;SDS011;37777;53.066;21.638;2023-10-19T20:35:00;27.10;;;25.13;;
51692;SDS011;37777;53.066;21.638;2023-10-19T20:42:01;34.10;;;31.45;;
51692;SDS011;37777;53.066;21.638;2023-10-19T20:49:03;28.80;;;26.70;;
51692;SDS011;37777;53.066;21.638;2023-10-19T20:56:04;26.25;;;24.25;;
51692;SDS011;37777;53.066;21.638;2023-10-19T21:03:06;30.17;;;27.90;;
51692;SDS011;37777;53.066;21.638;2023-10-19T21:10:08;30.27;;;28.00;;
51692;SDS011;37777;53.066;21.638;2023-10-19T21:17:12;23.17;;;21.38;;
51692;SDS011;37777;53.066;21.638;2023-10-19T21:24:14;26.67;;;24.77;;
51692;SDS011;37777;53.066;21.638;2023-10-19T21:31:16;26.63;;;24.83;;
51692;SDS011;37777;53.066;21.638;2023-10-19T21:38:18;26.30;;;24.40;;
51692;SDS011;37777;53.066;21.638;2023-10-19T21:45:20;24.63;;;22.83;;
51692;SDS011;37777;53.066;21.638;2023-10-19T21:52:21;25.77;;;23.98;;
51692;SDS011;37777;53.066;21.638;2023-10-19T21:59:25;25.60;;;23.83;;
51692;SDS011;37777;53.066;21.638;2023-10-19T22:06:26;26.52;;;24.73;;
51692;SDS011;37777;53.066;21.638;2023-10-19T22:13:28;27.42;;;25.42;;
51692;SDS011;37777;53.066;21.638;2023-10-19T22:20:29;29.95;;;27.95;;
51692;SDS011;37777;53.066;21.638;2023-10-19T22:27:31;36.38;;;33.83;;
51692;SDS011;37777;53.066;21.638;2023-10-19T22:34:33;37.10;;;34.50;;
51692;SDS011;37777;53.066;21.638;2023-10-19T22:41:37;32.00;;;29.90;;
51692;SDS011;37777;53.066;21.638;2023-10-19T22:48:39;32.08;;;29.88;;
51692;SDS011;37777;53.066;21.638;2023-10-19T22:55:41;30.33;;;28.25;;
51692;SDS011;37777;53.066;21.638;2023-10-19T23:02:43;29.42;;;27.50;;
51692;SDS011;37777;53.066;21.638;2023-10-19T23:09:49;31.23;;;29.10;;
51692;SDS011;37777;53.066;21.638;2023-10-19T23:16:52;29.65;;;27.50;;
51692;SDS011;37777;53.066;21.638;2023-10-19T23:23:55;29.13;;;27.13;;
51692;SDS011;37777;53.066;21.638;2023-10-19T23:30:57;26.77;;;24.92;;
51692;SDS011;37777;53.066;21.638;2023-10-19T23:38:11;34.85;;;32.42;;
51692;SDS011;37777;53.066;21.638;2023-10-19T23:45:13;37.35;;;34.85;;
51692;SDS011;37777;53.066;21.638;2023-10-19T23:52:15;37.30;;;34.53;;
51692;SDS011;37777;53.066;21.638;2023-10-19T23:59:17;33.67;;;31.38;;
